createdAt,value
2018-01-31T01:54:19.407Z,3.57
2018-01-31T01:56:55.053Z,3.33
2018-01-31T01:59:24.604Z,3.33
2018-01-31T02:01:54.144Z,2.93
2018-01-31T02:04:24.570Z,3.10
2018-01-31T02:06:54.132Z,2.90
2018-01-31T02:09:23.721Z,3.30
2018-01-31T02:11:53.298Z,3.30
2018-01-31T02:14:22.814Z,3.77
2018-01-31T02:16:52.616Z,3.07
2018-01-31T02:19:22.183Z,3.10
2018-01-31T02:21:51.768Z,3.00
2018-01-31T02:24:21.346Z,2.93
2018-01-31T02:27:03.554Z,3.13
2018-01-31T02:29:33.062Z,2.83
2018-01-31T02:32:02.644Z,3.03
2018-01-31T02:34:32.161Z,3.70
2018-01-31T02:37:01.714Z,3.00
2018-01-31T02:39:37.218Z,2.97
2018-01-31T02:42:06.760Z,3.10
2018-01-31T02:44:36.280Z,3.17
2018-01-31T02:47:05.869Z,3.07
2018-01-31T02:49:35.406Z,3.00
2018-01-31T02:52:05.958Z,3.03
2018-01-31T02:54:35.496Z,3.43
2018-01-31T02:57:19.932Z,3.00
2018-01-31T02:59:49.709Z,2.70
2018-01-31T03:02:19.245Z,3.00
2018-01-31T03:04:48.814Z,3.40
2018-01-31T03:07:19.179Z,3.23
2018-01-31T03:09:48.707Z,3.63
2018-01-31T03:12:18.280Z,3.53
2018-01-31T03:14:47.850Z,3.13
2018-01-31T03:17:17.436Z,3.27
2018-01-31T03:20:00.028Z,2.87
2018-01-31T03:22:29.599Z,3.87
2018-01-31T03:25:07.955Z,3.60
2018-01-31T03:27:43.520Z,3.40
2018-01-31T03:30:13.109Z,3.40
2018-01-31T03:32:45.976Z,2.97
2018-01-31T03:35:15.539Z,3.37
2018-01-31T03:37:45.058Z,3.83
2018-01-31T03:40:14.563Z,3.67
2018-01-31T03:42:46.623Z,3.70
2018-01-31T03:45:16.140Z,3.20
2018-01-31T03:47:46.133Z,3.50
2018-01-31T03:50:18.114Z,3.50
2018-01-31T03:52:48.101Z,3.20
2018-01-31T03:55:17.643Z,3.90
2018-01-31T03:57:54.337Z,3.57
2018-01-31T04:00:24.127Z,3.90
2018-01-31T04:02:53.872Z,3.77
2018-01-31T04:05:23.401Z,3.70
2018-01-31T04:08:08.483Z,4.00
2018-01-31T04:10:56.956Z,3.43
2018-01-31T04:13:26.518Z,3.70
2018-01-31T04:15:57.856Z,3.80
2018-01-31T04:18:27.440Z,3.70
2018-01-31T04:20:57.042Z,3.10
2018-01-31T04:23:34.124Z,3.50
2018-01-31T04:26:03.653Z,3.50
2018-01-31T04:28:33.171Z,3.80
2018-01-31T04:31:02.736Z,4.40
2018-01-31T04:33:32.306Z,4.07
2018-01-31T04:36:02.100Z,3.17
2018-01-31T04:38:31.685Z,5.40
2018-01-31T04:41:01.201Z,3.87
2018-01-31T04:43:30.908Z,3.80
2018-01-31T04:46:00.485Z,4.20
2018-01-31T04:48:30.032Z,4.00
2018-01-31T04:51:00.068Z,4.50
2018-01-31T04:53:30.484Z,3.47
2018-01-31T04:56:00.127Z,3.50
2018-01-31T04:58:35.723Z,4.20
2018-01-31T05:01:05.314Z,3.80
2018-01-31T05:03:35.938Z,4.27
2018-01-31T05:06:05.735Z,4.30
2018-01-31T05:08:35.294Z,4.10
2018-01-31T05:11:06.416Z,4.23
2018-01-31T05:13:35.984Z,4.23
2018-01-31T05:16:06.271Z,4.57
2018-01-31T05:18:35.791Z,4.80
2018-01-31T05:21:05.336Z,4.70
2018-01-31T05:23:35.064Z,4.80
2018-01-31T05:26:04.627Z,4.90
2018-01-31T05:28:35.608Z,5.20
2018-01-31T05:31:05.988Z,5.20
2018-01-31T05:33:42.882Z,5.10
2018-01-31T05:36:12.577Z,4.83
2018-01-31T05:38:42.144Z,4.80
2018-01-31T05:41:11.660Z,4.60
2018-01-31T05:43:41.193Z,4.50
2018-01-31T05:46:10.694Z,4.90
2018-01-31T05:48:40.225Z,5.13
2018-01-31T05:51:09.722Z,5.07
2018-01-31T05:53:44.319Z,4.33
2018-01-31T05:56:14.052Z,5.40
2018-01-31T05:58:43.566Z,4.60
2018-01-31T06:01:13.483Z,5.60
2018-01-31T06:03:43.017Z,5.20
2018-01-31T06:06:12.591Z,5.87
2018-01-31T06:08:42.115Z,6.10
2018-01-31T06:11:11.661Z,5.70
2018-01-31T06:13:47.617Z,4.93
2018-01-31T06:16:20.312Z,4.93
2018-01-31T06:18:49.885Z,5.50
2018-01-31T06:21:19.403Z,5.80
2018-01-31T06:23:56.014Z,6.00
2018-01-31T06:26:25.535Z,6.23
2018-01-31T06:28:55.161Z,5.90
2018-01-31T06:31:24.707Z,6.30
2018-01-31T06:34:04.919Z,6.07
2018-01-31T06:36:40.442Z,6.60
2018-01-31T06:39:09.994Z,6.60
2018-01-31T06:41:39.796Z,6.10
2018-01-31T06:44:22.647Z,6.60
2018-01-31T06:46:52.543Z,6.47
2018-01-31T06:49:22.427Z,7.40
2018-01-31T06:51:57.530Z,6.40
2018-01-31T06:54:27.043Z,6.30
2018-01-31T06:56:56.841Z,7.47
2018-01-31T06:59:26.387Z,7.10
2018-01-31T07:01:56.324Z,6.93
2018-01-31T07:04:26.934Z,7.83
2018-01-31T07:06:56.463Z,8.00
2018-01-31T07:09:26.045Z,8.50
2018-01-31T07:11:55.581Z,7.00
2018-01-31T07:14:26.294Z,7.63
2018-01-31T07:16:55.809Z,8.23
2018-01-31T07:19:35.888Z,9.03
2018-01-31T07:22:05.932Z,8.23
2018-01-31T07:24:35.912Z,8.87
2018-01-31T07:27:05.646Z,8.10
2018-01-31T07:29:35.134Z,7.90
2018-01-31T07:32:17.859Z,8.37
2018-01-31T07:34:49.157Z,7.30
2018-01-31T07:37:18.709Z,7.07
2018-01-31T07:39:48.235Z,6.60
2018-01-31T07:42:18.852Z,7.03
2018-01-31T07:44:49.506Z,6.90
2018-01-31T07:47:19.042Z,7.77
2018-01-31T07:49:48.587Z,7.17
2018-01-31T07:52:18.167Z,9.10
2018-01-31T07:54:52.620Z,9.43
2018-01-31T07:57:22.162Z,7.30
2018-01-31T07:59:51.687Z,11.80
2018-01-31T08:02:21.431Z,10.47
2018-01-31T08:04:56.993Z,10.50
2018-01-31T08:07:26.561Z,10.70
2018-01-31T08:09:56.141Z,11.60
2018-01-31T08:12:25.930Z,11.57
2018-01-31T08:14:55.575Z,11.60
2018-01-31T08:17:25.145Z,12.17
2018-01-31T08:19:54.702Z,13.40
2018-01-31T08:22:24.311Z,11.77
2018-01-31T08:24:53.815Z,11.50
2018-01-31T08:27:23.355Z,10.90
2018-01-31T08:29:56.867Z,10.33
2018-01-31T08:32:40.134Z,10.40
2018-01-31T08:35:10.135Z,9.73
2018-01-31T08:37:41.162Z,9.97
2018-01-31T08:40:10.736Z,9.17
2018-01-31T08:42:53.214Z,10.37
2018-01-31T08:45:22.754Z,9.13
2018-01-31T08:47:52.522Z,9.83
2018-01-31T08:50:22.692Z,9.23
2018-01-31T08:52:52.154Z,8.93
2018-01-31T08:55:21.718Z,9.93
2018-01-31T08:57:52.112Z,10.37
2018-01-31T09:00:21.661Z,8.83
2018-01-31T09:02:51.218Z,8.43
2018-01-31T09:05:27.554Z,9.03
2018-01-31T09:07:57.107Z,8.20
2018-01-31T09:10:26.595Z,8.80
2018-01-31T09:13:08.200Z,7.67
2018-01-31T09:15:37.733Z,7.87
2018-01-31T09:18:07.358Z,7.90
2018-01-31T09:20:36.893Z,6.40
2018-01-31T09:23:06.437Z,6.03
2018-01-31T09:25:36.232Z,6.10
2018-01-31T09:28:05.815Z,7.00
2018-01-31T09:30:35.867Z,5.70
2018-01-31T09:33:07.475Z,6.33
2018-01-31T09:35:37.129Z,5.87
2018-01-31T09:38:06.686Z,5.83
2018-01-31T09:40:36.222Z,5.40
2018-01-31T09:43:05.749Z,5.00
2018-01-31T09:45:35.527Z,5.60
2018-01-31T09:48:05.949Z,6.20
2018-01-31T09:50:35.949Z,4.93
2018-01-31T09:53:06.805Z,6.40
2018-01-31T09:55:37.806Z,5.67
2018-01-31T09:58:19.440Z,5.53
2018-01-31T10:00:48.987Z,5.23
2018-01-31T10:03:19.043Z,4.93
2018-01-31T10:05:48.659Z,4.93
2018-01-31T10:08:33.502Z,4.80
2018-01-31T10:11:03.513Z,4.73
2018-01-31T10:13:33.185Z,5.83
2018-01-31T10:16:08.984Z,4.10
2018-01-31T10:18:38.970Z,4.47
2018-01-31T10:21:08.765Z,4.50
2018-01-31T10:23:38.347Z,4.90
2018-01-31T10:26:07.959Z,4.50
2018-01-31T10:28:37.512Z,6.00
2018-01-31T10:31:20.006Z,7.17
2018-01-31T10:33:49.769Z,6.40
2018-01-31T10:36:19.722Z,7.13
2018-01-31T10:38:55.343Z,8.53
2018-01-31T10:41:38.663Z,7.00
2018-01-31T10:44:08.416Z,7.40
2018-01-31T10:46:38.002Z,7.83
2018-01-31T10:49:07.560Z,8.50
2018-01-31T10:51:37.090Z,7.40
2018-01-31T10:59:07.437Z,5.60
2018-01-31T11:01:37.106Z,4.90
2018-01-31T11:04:06.630Z,6.17
2018-01-31T11:06:36.374Z,6.63
2018-01-31T11:09:05.934Z,6.40
2018-01-31T11:11:35.440Z,5.80
2018-01-31T11:14:04.977Z,5.63
2018-01-31T11:16:40.613Z,5.80
2018-01-31T11:19:10.171Z,5.47
2018-01-31T11:21:40.222Z,6.40
2018-01-31T11:24:09.730Z,6.00
2018-01-31T11:26:39.347Z,5.93
2018-01-31T11:29:08.911Z,5.70
2018-01-31T11:31:39.282Z,5.00
2018-01-31T11:34:08.843Z,4.53
2018-01-31T11:36:38.362Z,4.60
2018-01-31T11:39:07.934Z,4.27
2018-01-31T11:41:37.559Z,4.43
2018-01-31T11:44:07.050Z,3.73
2018-01-31T11:46:36.634Z,3.30
2018-01-31T11:49:06.178Z,4.30
2018-01-31T11:51:35.730Z,3.30
2018-01-31T11:54:19.763Z,3.50
2018-01-31T11:56:49.290Z,2.93
2018-01-31T11:59:22.271Z,3.43
2018-01-31T12:01:51.809Z,4.13
2018-01-31T12:04:21.331Z,3.30
2018-01-31T12:06:56.381Z,3.20
2018-01-31T12:09:36.532Z,3.23
2018-01-31T12:12:06.126Z,3.77
2018-01-31T12:14:48.659Z,3.77
2018-01-31T12:17:18.209Z,4.00
2018-01-31T12:20:06.329Z,4.40
2018-01-31T12:22:47.759Z,3.80
2018-01-31T12:25:23.152Z,3.70
2018-01-31T12:27:58.611Z,4.10
2018-01-31T12:30:34.102Z,3.60
2018-01-31T12:33:09.394Z,4.27
2018-01-31T12:35:44.946Z,3.97
2018-01-31T12:38:20.380Z,3.77
2018-01-31T12:40:49.673Z,4.03
2018-01-31T12:43:19.566Z,4.07
2018-01-31T12:45:48.858Z,4.60
2018-01-31T12:48:24.287Z,4.70
2018-01-31T12:50:59.773Z,5.00
2018-01-31T12:53:35.342Z,4.57
2018-01-31T12:56:19.732Z,4.53
2018-01-31T12:59:13.816Z,4.60
2018-01-31T13:01:55.087Z,3.90
2018-01-31T13:04:30.704Z,4.63
2018-01-31T13:07:06.144Z,5.23
2018-01-31T13:09:42.194Z,5.07
2018-01-31T13:12:17.545Z,4.90
2018-01-31T13:14:59.802Z,4.50
2018-01-31T13:17:35.077Z,5.03
2018-01-31T13:20:10.490Z,4.80
2018-01-31T13:22:57.788Z,3.90
2018-01-31T13:25:33.067Z,5.10
2018-01-31T13:28:14.092Z,5.10
2018-01-31T13:30:47.327Z,4.77
2018-01-31T13:33:25.694Z,4.80
2018-01-31T13:36:00.969Z,5.10
2018-01-31T13:38:36.248Z,4.43
2018-01-31T13:41:11.506Z,4.70
2018-01-31T13:43:53.148Z,4.87
2018-01-31T13:46:28.583Z,4.80
2018-01-31T13:49:07.822Z,4.20
2018-01-31T13:51:43.177Z,4.87
2018-01-31T13:54:19.303Z,4.90
2018-01-31T13:56:55.265Z,4.80
2018-01-31T13:59:30.698Z,4.70
2018-01-31T14:02:06.063Z,4.63
2018-01-31T14:04:42.442Z,4.80
2018-01-31T14:07:17.769Z,5.07
2018-01-31T14:10:09.569Z,4.13
2018-01-31T14:12:44.812Z,4.63
2018-01-31T14:15:20.197Z,4.50
2018-01-31T14:17:55.577Z,5.10
2018-01-31T14:20:38.501Z,4.57
2018-01-31T14:23:31.104Z,4.37
2018-01-31T14:26:06.406Z,3.80
2018-01-31T14:28:41.736Z,5.10
2018-01-31T14:31:24.286Z,4.20
2018-01-31T14:33:59.495Z,3.70
2018-01-31T14:36:28.782Z,4.60
2018-01-31T14:39:10.223Z,4.87
2018-01-31T14:41:39.485Z,5.70
2018-01-31T14:44:08.739Z,3.97
2018-01-31T14:46:38.021Z,3.57
2018-01-31T14:49:07.307Z,3.80
2018-01-31T14:51:36.591Z,3.90
2018-01-31T14:54:06.814Z,3.20
2018-01-31T14:56:36.096Z,3.30
2018-01-31T14:59:06.346Z,3.83
2018-01-31T15:01:35.646Z,3.77
2018-01-31T15:04:06.663Z,3.97
2018-01-31T15:06:35.947Z,3.80
2018-01-31T15:09:11.570Z,3.43
2018-01-31T15:11:40.878Z,3.80
2018-01-31T15:14:10.166Z,4.10
2018-01-31T15:16:39.473Z,3.80
2018-01-31T15:19:08.754Z,3.33
2018-01-31T15:21:38.047Z,3.60
2018-01-31T15:24:07.366Z,5.93
2018-01-31T15:26:36.605Z,3.70
2018-01-31T15:29:05.867Z,3.53
2018-01-31T15:31:35.162Z,4.07
2018-01-31T15:34:04.846Z,3.30
2018-01-31T15:36:34.142Z,3.57
2018-01-31T15:39:03.698Z,2.90
2018-01-31T15:41:32.986Z,3.97
2018-01-31T15:44:02.600Z,3.50
2018-01-31T15:46:31.896Z,3.90
2018-01-31T15:49:14.023Z,3.93
2018-01-31T15:51:43.327Z,3.40
2018-01-31T15:54:12.618Z,4.00
2018-01-31T15:56:41.943Z,5.27
2018-01-31T15:59:11.226Z,4.30
2018-01-31T16:01:40.487Z,3.67
2018-01-31T16:04:23.616Z,4.40
2018-01-31T16:07:08.420Z,3.80
2018-01-31T16:09:43.959Z,4.47
2018-01-31T16:12:13.183Z,3.80
2018-01-31T16:14:42.444Z,3.43
2018-01-31T16:17:11.985Z,3.67
2018-01-31T16:19:47.799Z,3.90
2018-01-31T16:22:17.354Z,4.20
2018-01-31T16:24:46.868Z,4.03
2018-01-31T16:27:22.311Z,4.43
2018-01-31T16:30:02.583Z,3.63
2018-01-31T16:32:38.043Z,4.60
2018-01-31T16:35:07.681Z,4.60
2018-01-31T16:37:37.745Z,4.83
2018-01-31T16:40:07.328Z,5.10
2018-01-31T16:42:36.859Z,4.77
2018-01-31T16:45:06.374Z,5.30
2018-01-31T16:47:35.946Z,4.97
2018-01-31T16:50:06.361Z,5.37
2018-01-31T16:52:36.681Z,5.30
2018-01-31T16:55:06.384Z,5.00
2018-01-31T16:57:36.438Z,5.73
2018-01-31T17:00:05.955Z,5.27
2018-01-31T17:02:35.792Z,5.20
2018-01-31T17:05:08.715Z,5.43
2018-01-31T17:07:44.850Z,5.83
2018-01-31T17:10:14.492Z,6.57
2018-01-31T17:12:44.628Z,5.30
2018-01-31T17:15:22.205Z,6.63
2018-01-31T17:17:51.766Z,5.30
2018-01-31T17:20:21.708Z,5.80
2018-01-31T17:22:51.193Z,6.67
2018-01-31T17:25:20.862Z,7.03
2018-01-31T17:27:58.010Z,6.57
2018-01-31T17:30:28.491Z,8.20
2018-01-31T17:32:58.257Z,6.40
2018-01-31T17:35:27.795Z,6.07
2018-01-31T17:37:57.579Z,6.53
2018-01-31T17:40:27.196Z,6.30
2018-01-31T17:42:56.769Z,6.13
2018-01-31T17:45:26.526Z,6.17
2018-01-31T17:47:56.573Z,6.43
2018-01-31T17:50:32.158Z,6.87
2018-01-31T17:53:02.687Z,6.30
2018-01-31T17:55:32.221Z,5.87
2018-01-31T17:58:01.782Z,5.50
2018-01-31T18:00:32.479Z,5.80
2018-01-31T18:03:02.027Z,6.20
2018-01-31T18:05:32.305Z,5.40
2018-01-31T18:08:02.270Z,6.63
2018-01-31T18:10:44.070Z,6.90
2018-01-31T18:13:13.786Z,7.27
2018-01-31T18:15:44.002Z,8.33
2018-01-31T18:18:13.618Z,7.23
2018-01-31T18:20:43.144Z,6.53
2018-01-31T18:23:13.011Z,6.73
2018-01-31T18:25:42.723Z,6.30
2018-01-31T18:28:12.239Z,7.40
2018-01-31T18:30:45.676Z,6.43
2018-01-31T18:33:15.695Z,6.50
2018-01-31T18:35:45.575Z,7.27
2018-01-31T18:38:15.430Z,6.00
2018-01-31T18:40:44.958Z,5.43
2018-01-31T18:43:14.622Z,6.00
2018-01-31T18:45:44.144Z,5.60
2018-01-31T18:48:14.188Z,5.80
2018-01-31T18:50:44.151Z,6.40
2018-01-31T18:53:13.692Z,5.67
2018-01-31T18:55:44.438Z,5.27
2018-01-31T18:58:26.088Z,6.27
2018-01-31T19:00:56.495Z,6.23
2018-01-31T19:03:26.322Z,6.10
2018-01-31T19:05:56.830Z,6.43
2018-01-31T19:08:26.825Z,6.97
2018-01-31T19:10:56.404Z,6.63
2018-01-31T19:13:26.385Z,6.90
2018-01-31T19:16:13.189Z,6.00
2018-01-31T19:18:47.494Z,5.70
2018-01-31T19:21:17.002Z,5.20
2018-01-31T19:23:46.533Z,7.80
2018-01-31T19:26:29.771Z,6.80
2018-01-31T19:28:59.924Z,6.20
2018-01-31T19:31:29.479Z,7.10
2018-01-31T19:34:00.096Z,7.70
2018-01-31T19:36:29.655Z,7.43
2018-01-31T19:39:11.316Z,7.67
2018-01-31T19:41:40.861Z,8.10
2018-01-31T19:44:10.534Z,7.97
2018-01-31T19:46:40.598Z,9.37
2018-01-31T19:49:10.142Z,9.03
2018-01-31T19:51:58.406Z,9.07
2018-01-31T19:54:28.149Z,8.60
2018-01-31T19:56:57.643Z,8.73
2018-01-31T19:59:27.685Z,8.50
2018-01-31T20:02:18.240Z,8.57
2018-01-31T20:04:47.803Z,7.90
2018-01-31T20:07:17.328Z,8.13
2018-01-31T20:09:47.693Z,8.50
2018-01-31T20:12:30.501Z,8.27
2018-01-31T20:15:10.279Z,8.63
2018-01-31T20:17:41.460Z,8.40
2018-01-31T20:20:11.214Z,8.00
2018-01-31T20:22:40.971Z,8.20
2018-01-31T20:25:13.781Z,8.63
2018-01-31T20:27:50.598Z,8.60
2018-01-31T20:30:20.403Z,8.30
2018-01-31T20:32:49.910Z,9.50
2018-01-31T20:35:19.602Z,9.70
2018-01-31T20:37:49.627Z,9.10
2018-01-31T20:40:19.927Z,8.17
2018-01-31T20:42:49.458Z,8.80
2018-01-31T20:45:19.042Z,10.20
2018-01-31T20:47:48.586Z,13.00
2018-01-31T20:50:31.631Z,11.60
2018-01-31T20:53:07.425Z,12.17
2018-01-31T20:55:37.033Z,15.17
2018-01-31T20:58:07.775Z,15.20
2018-01-31T21:00:37.355Z,12.97
2018-01-31T21:03:08.883Z,10.50
2018-01-31T21:05:38.577Z,10.00
2018-01-31T21:08:13.959Z,9.30
2018-01-31T21:10:43.934Z,8.80
2018-01-31T21:13:13.866Z,8.50
2018-01-31T21:15:43.793Z,8.70
2018-01-31T21:18:13.877Z,8.50
2018-01-31T21:20:43.605Z,7.90
2018-01-31T21:23:13.184Z,8.60
2018-01-31T21:25:42.711Z,8.67
2018-01-31T21:28:12.258Z,7.30
2018-01-31T21:30:41.929Z,8.70
2018-01-31T21:33:11.578Z,7.63
2018-01-31T21:35:43.404Z,8.77
2018-01-31T21:38:20.838Z,8.80
2018-01-31T21:40:50.555Z,8.40
2018-01-31T21:43:20.154Z,9.97
2018-01-31T21:45:49.713Z,8.10
2018-01-31T21:48:19.254Z,7.80
2018-01-31T21:50:48.801Z,7.63
2018-01-31T21:53:19.433Z,8.57
2018-01-31T21:55:49.207Z,7.47
2018-01-31T21:58:18.682Z,8.87
2018-01-31T22:00:48.368Z,8.57
2018-01-31T22:03:17.915Z,8.30
2018-01-31T22:05:47.438Z,7.40
2018-01-31T22:08:17.127Z,8.80
2018-01-31T22:10:46.669Z,8.70
2018-01-31T22:13:16.225Z,9.17
2018-01-31T22:15:45.817Z,8.17
2018-01-31T22:18:15.390Z,8.30
2018-01-31T22:20:44.962Z,8.73
2018-01-31T22:23:14.494Z,8.67
2018-01-31T22:25:44.014Z,8.40
2018-01-31T22:28:13.939Z,8.80
2018-01-31T22:30:43.743Z,8.40
2018-01-31T22:33:13.306Z,8.63
2018-01-31T22:35:42.875Z,8.10
2018-01-31T22:38:14.822Z,9.30
2018-01-31T22:40:44.553Z,9.43
2018-01-31T22:43:14.111Z,8.80
2018-01-31T22:45:43.663Z,9.40
2018-01-31T22:48:28.409Z,9.00
2018-01-31T22:50:58.094Z,8.97
2018-01-31T22:53:28.258Z,9.00
2018-01-31T22:56:01.551Z,9.40
2018-01-31T22:58:31.102Z,9.10
2018-01-31T23:01:00.655Z,8.60
2018-01-31T23:03:36.187Z,9.77
2018-01-31T23:06:09.549Z,8.87
2018-01-31T23:08:39.146Z,9.23
2018-01-31T23:11:08.654Z,9.70
2018-01-31T23:13:44.078Z,9.43
2018-01-31T23:16:13.828Z,9.43
2018-01-31T23:19:00.183Z,9.87
2018-01-31T23:21:29.818Z,10.20
2018-01-31T23:23:59.815Z,10.30
2018-01-31T23:26:29.737Z,9.80
2018-01-31T23:29:01.019Z,9.77
2018-01-31T23:31:44.826Z,10.20
2018-01-31T23:34:15.451Z,9.40
2018-01-31T23:36:53.994Z,9.57
2018-01-31T23:39:23.767Z,9.80
2018-01-31T23:41:53.430Z,10.30
2018-01-31T23:44:30.586Z,11.10
2018-01-31T23:47:01.241Z,10.50
2018-01-31T23:49:30.849Z,11.43
2018-01-31T23:52:00.391Z,10.17
2018-01-31T23:54:29.924Z,10.53
2018-01-31T23:57:18.958Z,10.30
